sensor_id;sensor_type;location;lat;lon;timestamp;pressure;altitude;pressure_sealevel;temperature;humidity
6615;BME280;3343;42.896;23.912;2023-04-09T00:01:16;73646.66;;;-145.80;65.76
6615;BME280;3343;42.896;23.912;2023-04-09T00:03:44;73642.63;;;-145.80;65.88
6615;BME280;3343;42.896;23.912;2023-04-09T00:06:11;73662.69;;;-145.80;66.20
6615;BME280;3343;42.896;23.912;2023-04-09T00:08:38;73660.69;;;-145.80;66.22
6615;BME280;3343;42.896;23.912;2023-04-09T00:11:05;73674.72;;;-145.80;66.65
6615;BME280;3343;42.896;23.912;2023-04-09T00:13:32;73666.72;;;-145.80;66.55
6615;BME280;3343;42.896;23.912;2023-04-09T00:15:58;73678.75;;;-145.80;66.53
6615;BME280;3343;42.896;23.912;2023-04-09T00:18:25;73682.75;;;-145.80;67.06
6615;BME280;3343;42.896;23.912;2023-04-09T00:20:53;73664.69;;;-145.80;67.04
6615;BME280;3343;42.896;23.912;2023-04-09T00:23:20;73684.75;;;-145.80;67.16
6615;BME280;3343;42.896;23.912;2023-04-09T00:25:47;73690.78;;;-145.80;66.92
6615;BME280;3343;42.896;23.912;2023-04-09T00:28:14;73694.78;;;-145.80;67.25
6615;BME280;3343;42.896;23.912;2023-04-09T00:30:42;73702.81;;;-145.80;67.66
6615;BME280;3343;42.896;23.912;2023-04-09T00:33:08;73682.75;;;-145.80;67.47
6615;BME280;3343;42.896;23.912;2023-04-09T00:35:35;73694.78;;;-145.80;67.75
6615;BME280;3343;42.896;23.912;2023-04-09T00:38:03;73740.94;;;-145.80;69.13
6615;BME280;3343;42.896;23.912;2023-04-09T00:40:30;73767.00;;;-145.80;69.67
6615;BME280;3343;42.896;23.912;2023-04-09T00:42:57;73744.94;;;-145.80;69.32
6615;BME280;3343;42.896;23.912;2023-04-09T00:45:24;73767.00;;;-145.80;69.63
6615;BME280;3343;42.896;23.912;2023-04-09T00:47:51;73785.06;;;-145.80;69.83
6615;BME280;3343;42.896;23.912;2023-04-09T00:50:19;73799.09;;;-145.80;70.40
6615;BME280;3343;42.896;23.912;2023-04-09T00:52:48;73771.03;;;-145.80;69.89
6615;BME280;3343;42.896;23.912;2023-04-09T00:55:17;73752.97;;;-145.80;69.35
6615;BME280;3343;42.896;23.912;2023-04-09T00:57:44;73767.00;;;-145.80;69.33
6615;BME280;3343;42.896;23.912;2023-04-09T01:00:12;73754.97;;;-145.80;69.10
6615;BME280;3343;42.896;23.912;2023-04-09T01:02:40;73773.03;;;-145.80;69.19
6615;BME280;3343;42.896;23.912;2023-04-09T01:05:09;73754.97;;;-145.80;69.14
6615;BME280;3343;42.896;23.912;2023-04-09T01:07:44;73748.94;;;-145.80;69.01
6615;BME280;3343;42.896;23.912;2023-04-09T01:10:19;73787.06;;;-145.80;69.58
6615;BME280;3343;42.896;23.912;2023-04-09T01:12:57;73827.19;;;-145.80;70.80
6615;BME280;3343;42.896;23.912;2023-04-09T01:15:29;73843.22;;;-145.80;71.70
6615;BME280;3343;42.896;23.912;2023-04-09T01:18:03;73833.19;;;-145.80;71.55
6615;BME280;3343;42.896;23.912;2023-04-09T01:20:34;73821.16;;;-145.80;71.40
6615;BME280;3343;42.896;23.912;2023-04-09T01:23:10;73835.22;;;-145.80;71.57
6615;BME280;3343;42.896;23.912;2023-04-09T01:25:54;73837.22;;;-145.80;71.25
6615;BME280;3343;42.896;23.912;2023-04-09T01:28:26;73871.31;;;-145.80;72.42
6615;BME280;3343;42.896;23.912;2023-04-09T01:31:00;73881.34;;;-145.80;72.82
6615;BME280;3343;42.896;23.912;2023-04-09T01:33:29;73887.38;;;-145.80;72.95
6615;BME280;3343;42.896;23.912;2023-04-09T01:35:58;73883.34;;;-145.80;73.08
6615;BME280;3343;42.896;23.912;2023-04-09T01:38:26;73911.44;;;-145.80;73.90
6615;BME280;3343;42.896;23.912;2023-04-09T01:40:54;73871.31;;;-145.80;73.27
6615;BME280;3343;42.896;23.912;2023-04-09T01:43:23;73845.25;;;-145.80;72.63
6615;BME280;3343;42.896;23.912;2023-04-09T01:45:52;73833.19;;;-145.80;72.36
6615;BME280;3343;42.896;23.912;2023-04-09T01:48:19;73857.28;;;-145.80;72.40
6615;BME280;3343;42.896;23.912;2023-04-09T01:50:47;73825.19;;;-145.80;71.81
6615;BME280;3343;42.896;23.912;2023-04-09T01:53:15;73823.16;;;-145.80;71.81
6615;BME280;3343;42.896;23.912;2023-04-09T01:55:42;73817.16;;;-145.80;71.70
6615;BME280;3343;42.896;23.912;2023-04-09T01:58:09;73811.13;;;-145.80;71.21
6615;BME280;3343;42.896;23.912;2023-04-09T02:00:38;73787.06;;;-145.80;70.79
6615;BME280;3343;42.896;23.912;2023-04-09T02:03:09;73783.06;;;-145.80;70.54
6615;BME280;3343;42.896;23.912;2023-04-09T02:05:41;73779.03;;;-145.80;70.91
6615;BME280;3343;42.896;23.912;2023-04-09T02:08:12;73754.97;;;-145.80;70.78
6615;BME280;3343;42.896;23.912;2023-04-09T02:10:43;73752.97;;;-145.80;70.42
6615;BME280;3343;42.896;23.912;2023-04-09T02:13:18;73750.97;;;-145.80;69.62
6615;BME280;3343;42.896;23.912;2023-04-09T02:15:46;73760.97;;;-145.80;69.49
6615;BME280;3343;42.896;23.912;2023-04-09T02:18:23;73756.97;;;-145.80;69.58
6615;BME280;3343;42.896;23.912;2023-04-09T02:20:51;73791.06;;;-145.80;70.65
6615;BME280;3343;42.896;23.912;2023-04-09T02:23:18;73781.03;;;-145.80;69.55
6615;BME280;3343;42.896;23.912;2023-04-09T02:25:45;73833.19;;;-145.80;70.49
6615;BME280;3343;42.896;23.912;2023-04-09T02:28:12;73851.25;;;-145.80;70.80
6615;BME280;3343;42.896;23.912;2023-04-09T02:30:39;73871.31;;;-145.80;71.22
6615;BME280;3343;42.896;23.912;2023-04-09T02:33:06;73891.38;;;-145.80;71.89
6615;BME280;3343;42.896;23.912;2023-04-09T02:35:34;73879.34;;;-145.80;71.98
6615;BME280;3343;42.896;23.912;2023-04-09T02:38:01;73887.38;;;-145.80;71.59
6615;BME280;3343;42.896;23.912;2023-04-09T02:40:28;73883.34;;;-145.80;71.50
6615;BME280;3343;42.896;23.912;2023-04-09T02:42:56;73895.38;;;-145.80;71.85
6615;BME280;3343;42.896;23.912;2023-04-09T02:45:23;73911.44;;;-145.80;72.10
6615;BME280;3343;42.896;23.912;2023-04-09T02:47:50;73883.34;;;-145.80;71.62
6615;BME280;3343;42.896;23.912;2023-04-09T02:50:17;73879.34;;;-145.80;71.51
6615;BME280;3343;42.896;23.912;2023-04-09T02:52:46;73881.34;;;-145.80;71.34
6615;BME280;3343;42.896;23.912;2023-04-09T02:55:13;73923.47;;;-145.80;71.79
6615;BME280;3343;42.896;23.912;2023-04-09T02:57:40;73899.41;;;-145.80;71.40
6615;BME280;3343;42.896;23.912;2023-04-09T03:00:08;73871.31;;;-145.80;70.69
6615;BME280;3343;42.896;23.912;2023-04-09T03:02:36;73873.31;;;-145.80;70.56
6615;BME280;3343;42.896;23.912;2023-04-09T03:05:03;73875.31;;;-145.80;70.47
6615;BME280;3343;42.896;23.912;2023-04-09T03:07:30;73889.38;;;-145.80;70.83
6615;BME280;3343;42.896;23.912;2023-04-09T03:09:58;73883.34;;;-145.80;70.63
6615;BME280;3343;42.896;23.912;2023-04-09T03:12:25;73885.34;;;-145.80;70.88
6615;BME280;3343;42.896;23.912;2023-04-09T03:14:52;73875.31;;;-145.80;70.20
6615;BME280;3343;42.896;23.912;2023-04-09T03:17:19;73891.38;;;-145.80;70.13
6615;BME280;3343;42.896;23.912;2023-04-09T03:19:46;73875.31;;;-145.80;69.82
6615;BME280;3343;42.896;23.912;2023-04-09T03:22:12;73871.31;;;-145.80;69.73
6615;BME280;3343;42.896;23.912;2023-04-09T03:24:39;73859.28;;;-145.80;68.96
6615;BME280;3343;42.896;23.912;2023-04-09T03:27:08;73839.22;;;-145.80;68.59
6615;BME280;3343;42.896;23.912;2023-04-09T03:29:35;73867.31;;;-145.80;69.05
6615;BME280;3343;42.896;23.912;2023-04-09T03:32:01;73859.28;;;-145.80;68.85
6615;BME280;3343;42.896;23.912;2023-04-09T03:34:28;73851.25;;;-145.80;68.74
6615;BME280;3343;42.896;23.912;2023-04-09T03:36:55;73847.25;;;-145.80;69.10
6615;BME280;3343;42.896;23.912;2023-04-09T03:39:23;73831.19;;;-145.80;68.73
6615;BME280;3343;42.896;23.912;2023-04-09T03:41:50;73839.22;;;-145.80;68.37
6615;BME280;3343;42.896;23.912;2023-04-09T03:44:18;73835.22;;;-145.80;68.62
6615;BME280;3343;42.896;23.912;2023-04-09T03:46:45;73871.31;;;-145.80;69.17
6615;BME280;3343;42.896;23.912;2023-04-09T03:49:12;73855.25;;;-145.80;69.58
6615;BME280;3343;42.896;23.912;2023-04-09T03:51:39;73853.25;;;-145.80;69.59
6615;BME280;3343;42.896;23.912;2023-04-09T03:54:06;73865.28;;;-145.80;69.99
6615;BME280;3343;42.896;23.912;2023-04-09T03:56:33;73865.28;;;-145.80;69.72
6615;BME280;3343;42.896;23.912;2023-04-09T03:59:00;73839.22;;;-145.80;68.87
6615;BME280;3343;42.896;23.912;2023-04-09T04:01:28;73823.16;;;-145.80;69.00
6615;BME280;3343;42.896;23.912;2023-04-09T04:03:55;73859.28;;;-145.80;69.61
6615;BME280;3343;42.896;23.912;2023-04-09T04:06:22;73865.28;;;-145.80;69.63
6615;BME280;3343;42.896;23.912;2023-04-09T04:08:49;73897.41;;;-145.80;70.59
6615;BME280;3343;42.896;23.912;2023-04-09T04:11:15;73879.34;;;-145.80;70.49
6615;BME280;3343;42.896;23.912;2023-04-09T04:13:42;73863.28;;;-145.80;69.89
6615;BME280;3343;42.896;23.912;2023-04-09T04:16:09;73851.25;;;-145.80;69.50
6615;BME280;3343;42.896;23.912;2023-04-09T04:18:37;73833.19;;;-145.80;69.46
6615;BME280;3343;42.896;23.912;2023-04-09T04:21:04;73849.25;;;-145.80;69.64
6615;BME280;3343;42.896;23.912;2023-04-09T04:23:32;73851.25;;;-145.80;69.94
6615;BME280;3343;42.896;23.912;2023-04-09T04:25:59;73859.28;;;-145.80;70.19
6615;BME280;3343;42.896;23.912;2023-04-09T04:28:26;73863.28;;;-145.80;70.73
6615;BME280;3343;42.896;23.912;2023-04-09T04:30:53;73837.22;;;-145.80;69.84
6615;BME280;3343;42.896;23.912;2023-04-09T04:33:20;73843.22;;;-145.80;69.98
6615;BME280;3343;42.896;23.912;2023-04-09T04:35:48;73843.22;;;-145.80;70.01
6615;BME280;3343;42.896;23.912;2023-04-09T04:38:15;73879.34;;;-145.80;70.37
6615;BME280;3343;42.896;23.912;2023-04-09T04:40:42;73865.28;;;-145.80;70.11
6615;BME280;3343;42.896;23.912;2023-04-09T04:43:08;73855.25;;;-145.80;70.06
6615;BME280;3343;42.896;23.912;2023-04-09T04:45:35;73901.41;;;-145.80;71.27
6615;BME280;3343;42.896;23.912;2023-04-09T04:48:02;73903.41;;;-145.80;71.62
6615;BME280;3343;42.896;23.912;2023-04-09T04:50:29;73899.41;;;-145.80;71.77
6615;BME280;3343;42.896;23.912;2023-04-09T04:52:58;73843.22;;;-145.80;70.61
6615;BME280;3343;42.896;23.912;2023-04-09T04:55:25;73853.25;;;-145.80;70.44
6615;BME280;3343;42.896;23.912;2023-04-09T04:57:52;73835.22;;;-145.80;70.22
6615;BME280;3343;42.896;23.912;2023-04-09T05:00:19;73837.22;;;-145.80;70.12
6615;BME280;3343;42.896;23.912;2023-04-09T05:02:45;73867.31;;;-145.80;70.97
6615;BME280;3343;42.896;23.912;2023-04-09T05:05:12;73861.28;;;-145.80;71.24
6615;BME280;3343;42.896;23.912;2023-04-09T05:07:39;73867.31;;;-145.80;71.17
6615;BME280;3343;42.896;23.912;2023-04-09T05:10:08;73855.25;;;-145.80;70.66
6615;BME280;3343;42.896;23.912;2023-04-09T05:12:36;73815.16;;;-145.80;69.82
6615;BME280;3343;42.896;23.912;2023-04-09T05:15:04;73799.09;;;-145.80;68.86
6615;BME280;3343;42.896;23.912;2023-04-09T05:17:31;73811.13;;;-145.80;68.19
6615;BME280;3343;42.896;23.912;2023-04-09T05:19:58;73839.22;;;-145.80;68.85
6615;BME280;3343;42.896;23.912;2023-04-09T05:22:25;73811.13;;;-145.80;68.52
6615;BME280;3343;42.896;23.912;2023-04-09T05:24:51;73797.09;;;-145.80;68.04
6615;BME280;3343;42.896;23.912;2023-04-09T05:27:20;73791.06;;;-145.80;67.60
6615;BME280;3343;42.896;23.912;2023-04-09T05:29:48;73805.13;;;-145.80;67.53
6615;BME280;3343;42.896;23.912;2023-04-09T05:32:15;73813.13;;;-145.80;67.72
6615;BME280;3343;42.896;23.912;2023-04-09T05:34:42;73795.09;;;-145.80;67.06
6615;BME280;3343;42.896;23.912;2023-04-09T05:37:10;73783.06;;;-145.80;66.98
6615;BME280;3343;42.896;23.912;2023-04-09T05:39:37;73815.16;;;-145.80;67.86
6615;BME280;3343;42.896;23.912;2023-04-09T05:42:04;73883.34;;;-145.80;69.38
6615;BME280;3343;42.896;23.912;2023-04-09T05:44:32;73845.25;;;-145.80;69.58
6615;BME280;3343;42.896;23.912;2023-04-09T05:46:59;73855.25;;;-145.80;69.36
6615;BME280;3343;42.896;23.912;2023-04-09T05:49:26;73843.22;;;-145.80;68.56
6615;BME280;3343;42.896;23.912;2023-04-09T05:51:53;73839.22;;;-145.80;68.81
6615;BME280;3343;42.896;23.912;2023-04-09T05:54:20;73869.31;;;-145.80;69.30
6615;BME280;3343;42.896;23.912;2023-04-09T05:56:47;73847.25;;;-145.80;69.53
6615;BME280;3343;42.896;23.912;2023-04-09T05:59:14;73855.25;;;-145.80;69.22
6615;BME280;3343;42.896;23.912;2023-04-09T06:01:43;73803.13;;;-145.80;68.28
6615;BME280;3343;42.896;23.912;2023-04-09T06:04:10;73821.16;;;-145.80;68.59
6615;BME280;3343;42.896;23.912;2023-04-09T06:06:37;73823.16;;;-145.80;68.23
6615;BME280;3343;42.896;23.912;2023-04-09T06:09:04;73795.09;;;-145.80;68.02
6615;BME280;3343;42.896;23.912;2023-04-09T06:11:31;73809.13;;;-145.80;68.36
6615;BME280;3343;42.896;23.912;2023-04-09T06:13:58;73809.13;;;-145.80;67.94
6615;BME280;3343;42.896;23.912;2023-04-09T06:16:26;73817.16;;;-145.80;68.37
6615;BME280;3343;42.896;23.912;2023-04-09T06:18:54;73777.03;;;-145.80;67.63
6615;BME280;3343;42.896;23.912;2023-04-09T06:21:21;73758.97;;;-145.80;66.60
6615;BME280;3343;42.896;23.912;2023-04-09T06:23:48;73775.03;;;-145.80;65.96
6615;BME280;3343;42.896;23.912;2023-04-09T06:26:15;73791.06;;;-145.80;66.85
6615;BME280;3343;42.896;23.912;2023-04-09T06:28:42;73803.13;;;-145.80;66.44
6615;BME280;3343;42.896;23.912;2023-04-09T06:31:09;73775.03;;;-145.80;66.11
6615;BME280;3343;42.896;23.912;2023-04-09T06:33:36;73752.97;;;-145.80;66.50
6615;BME280;3343;42.896;23.912;2023-04-09T06:36:05;73746.94;;;-145.80;66.15
6615;BME280;3343;42.896;23.912;2023-04-09T06:38:32;73769.00;;;-145.80;66.52
6615;BME280;3343;42.896;23.912;2023-04-09T06:40:59;73750.97;;;-145.80;65.37
6615;BME280;3343;42.896;23.912;2023-04-09T06:43:26;73746.94;;;-145.80;65.08
6615;BME280;3343;42.896;23.912;2023-04-09T06:45:53;73758.97;;;-145.80;64.92
6615;BME280;3343;42.896;23.912;2023-04-09T06:48:19;73750.97;;;-145.80;64.45
6615;BME280;3343;42.896;23.912;2023-04-09T06:50:46;73756.97;;;-145.80;65.02
6615;BME280;3343;42.896;23.912;2023-04-09T06:53:15;73726.88;;;-145.80;64.14
6615;BME280;3343;42.896;23.912;2023-04-09T06:55:42;73742.94;;;-145.80;64.80
6615;BME280;3343;42.896;23.912;2023-04-09T06:58:08;73722.88;;;-145.80;64.92
6615;BME280;3343;42.896;23.912;2023-04-09T07:00:35;73690.78;;;-145.80;64.49
6615;BME280;3343;42.896;23.912;2023-04-09T07:03:02;73630.59;;;-145.80;63.81
6615;BME280;3343;42.896;23.912;2023-04-09T07:05:30;73602.53;;;-145.80;61.90
6615;BME280;3343;42.896;23.912;2023-04-09T07:07:57;73578.44;;;-145.80;61.73
6615;BME280;3343;42.896;23.912;2023-04-09T07:10:26;73602.53;;;-145.80;63.00
6615;BME280;3343;42.896;23.912;2023-04-09T07:12:53;73622.56;;;-145.80;62.60
6615;BME280;3343;42.896;23.912;2023-04-09T07:15:19;73588.47;;;-145.80;61.88
6615;BME280;3343;42.896;23.912;2023-04-09T07:17:46;73676.75;;;-145.80;69.27
6615;BME280;3343;42.896;23.912;2023-04-09T07:27:23;73821.16;;;-145.80;65.87
6615;BME280;3343;42.896;23.912;2023-04-09T07:29:52;73811.13;;;-145.80;65.10
6615;BME280;3343;42.896;23.912;2023-04-09T07:32:19;73799.09;;;-145.80;66.40
6615;BME280;3343;42.896;23.912;2023-04-09T07:34:46;73767.00;;;-145.80;65.69
6615;BME280;3343;42.896;23.912;2023-04-09T07:37:13;73799.09;;;-145.80;64.36
6615;BME280;3343;42.896;23.912;2023-04-09T07:39:40;73815.16;;;-145.80;65.18
6615;BME280;3343;42.896;23.912;2023-04-09T07:42:07;73811.13;;;-145.80;64.90
6615;BME280;3343;42.896;23.912;2023-04-09T07:44:35;73799.09;;;-145.80;66.37
6615;BME280;3343;42.896;23.912;2023-04-09T07:47:04;73734.91;;;-145.80;63.83
6615;BME280;3343;42.896;23.912;2023-04-09T07:49:32;73726.88;;;-145.80;62.88
6615;BME280;3343;42.896;23.912;2023-04-09T07:51:59;73662.69;;;-145.80;60.94
6615;BME280;3343;42.896;23.912;2023-04-09T07:54:26;73658.69;;;-145.80;60.87
6615;BME280;3343;42.896;23.912;2023-04-09T07:56:53;73664.69;;;-145.80;62.68
6615;BME280;3343;42.896;23.912;2023-04-09T07:59:21;73750.97;;;-145.80;62.54
6615;BME280;3343;42.896;23.912;2023-04-09T08:01:49;73760.97;;;-145.80;62.43
6615;BME280;3343;42.896;23.912;2023-04-09T08:04:16;73744.94;;;-145.80;62.00
6615;BME280;3343;42.896;23.912;2023-04-09T08:06:43;73696.78;;;-145.80;63.42
6615;BME280;3343;42.896;23.912;2023-04-09T08:09:14;73682.75;;;-145.80;63.75
6615;BME280;3343;42.896;23.912;2023-04-09T08:11:41;73650.66;;;-145.80;62.76
6615;BME280;3343;42.896;23.912;2023-04-09T08:14:10;73620.56;;;-145.80;62.76
6615;BME280;3343;42.896;23.912;2023-04-09T08:16:38;73618.56;;;-145.80;60.07
6615;BME280;3343;42.896;23.912;2023-04-09T08:19:07;73598.50;;;-145.80;61.49
6615;BME280;3343;42.896;23.912;2023-04-09T08:21:36;73618.56;;;-145.80;59.88
6615;BME280;3343;42.896;23.912;2023-04-09T08:24:03;73606.53;;;-145.80;61.01
6615;BME280;3343;42.896;23.912;2023-04-09T08:26:30;73610.53;;;-145.80;61.90
6615;BME280;3343;42.896;23.912;2023-04-09T08:28:57;73614.56;;;-145.80;57.18
6615;BME280;3343;42.896;23.912;2023-04-09T08:31:24;73658.69;;;-145.80;59.62
6615;BME280;3343;42.896;23.912;2023-04-09T08:33:51;73666.72;;;-145.80;61.14
6615;BME280;3343;42.896;23.912;2023-04-09T08:36:20;73632.59;;;-145.80;60.60
6615;BME280;3343;42.896;23.912;2023-04-09T08:38:46;73674.72;;;-145.80;60.43
6615;BME280;3343;42.896;23.912;2023-04-09T08:41:17;73646.66;;;-145.80;60.12
6615;BME280;3343;42.896;23.912;2023-04-09T08:43:45;73670.72;;;-145.80;62.10
6615;BME280;3343;42.896;23.912;2023-04-09T08:46:13;73716.84;;;-145.80;62.50
6615;BME280;3343;42.896;23.912;2023-04-09T08:48:42;73660.69;;;-145.80;62.34
6615;BME280;3343;42.896;23.912;2023-04-09T08:51:12;73624.59;;;-145.80;61.06
6615;BME280;3343;42.896;23.912;2023-04-09T08:53:43;73566.41;;;-145.80;59.92
6615;BME280;3343;42.896;23.912;2023-04-09T08:56:12;73514.25;;;-145.80;60.10
6615;BME280;3343;42.896;23.912;2023-04-09T08:58:41;73407.97;;;-145.80;60.12
6615;BME280;3343;42.896;23.912;2023-04-09T09:01:19;73341.78;;;-145.80;56.76
6615;BME280;3343;42.896;23.912;2023-04-09T09:03:55;73319.72;;;-145.80;54.55
6615;BME280;3343;42.896;23.912;2023-04-09T09:06:23;73319.72;;;-145.80;54.34
6615;BME280;3343;42.896;23.912;2023-04-09T09:09:09;73281.59;;;-145.80;51.72
6615;BME280;3343;42.896;23.912;2023-04-09T09:11:37;73237.47;;;-145.80;55.11
6615;BME280;3343;42.896;23.912;2023-04-09T09:14:06;73149.22;;;-145.80;52.14
6615;BME280;3343;42.896;23.912;2023-04-09T09:16:34;73155.25;;;-145.80;49.74
6615;BME280;3343;42.896;23.912;2023-04-09T09:19:07;73107.09;;;-145.80;51.38
6615;BME280;3343;42.896;23.912;2023-04-09T09:21:34;73024.88;;;-145.80;50.99
6615;BME280;3343;42.896;23.912;2023-04-09T09:24:02;73020.88;;;-145.80;49.71
6615;BME280;3343;42.896;23.912;2023-04-09T09:26:43;72928.63;;;-145.80;47.79
6615;BME280;3343;42.896;23.912;2023-04-09T09:29:10;72920.59;;;-145.80;46.70
6615;BME280;3343;42.896;23.912;2023-04-09T09:31:45;72998.81;;;-145.80;44.41
6615;BME280;3343;42.896;23.912;2023-04-09T09:34:13;73050.94;;;-145.80;49.28
6615;BME280;3343;42.896;23.912;2023-04-09T09:36:41;73121.16;;;-145.80;48.12
6615;BME280;3343;42.896;23.912;2023-04-09T09:39:07;73135.19;;;-145.80;50.04
6615;BME280;3343;42.896;23.912;2023-04-09T09:41:36;73111.13;;;-145.80;50.36
6615;BME280;3343;42.896;23.912;2023-04-09T09:44:05;73048.94;;;-145.80;50.02
6615;BME280;3343;42.896;23.912;2023-04-09T09:46:34;73050.94;;;-145.80;48.70
6615;BME280;3343;42.896;23.912;2023-04-09T09:49:01;73081.03;;;-145.80;48.22
6615;BME280;3343;42.896;23.912;2023-04-09T09:51:28;73107.09;;;-145.80;49.23
6615;BME280;3343;42.896;23.912;2023-04-09T09:53:57;73177.31;;;-145.80;47.93
6615;BME280;3343;42.896;23.912;2023-04-09T09:56:29;73205.38;;;-145.80;47.71
6615;BME280;3343;42.896;23.912;2023-04-09T09:59:06;73135.19;;;-145.80;46.76
6615;BME280;3343;42.896;23.912;2023-04-09T10:01:38;73050.94;;;-145.80;48.20
6615;BME280;3343;42.896;23.912;2023-04-09T10:04:08;72944.66;;;-145.80;49.45
6615;BME280;3343;42.896;23.912;2023-04-09T10:06:42;72892.53;;;-145.80;45.29
6615;BME280;3343;42.896;23.912;2023-04-09T10:09:10;72896.53;;;-145.80;42.54
6615;BME280;3343;42.896;23.912;2023-04-09T10:11:38;72890.50;;;-145.80;44.43
6615;BME280;3343;42.896;23.912;2023-04-09T10:14:08;72884.50;;;-145.80;43.50
6615;BME280;3343;42.896;23.912;2023-04-09T10:16:36;72954.69;;;-145.80;43.26
6615;BME280;3343;42.896;23.912;2023-04-09T10:19:03;72980.75;;;-145.80;43.78
6615;BME280;3343;42.896;23.912;2023-04-09T10:21:37;73034.91;;;-145.80;45.27
6615;BME280;3343;42.896;23.912;2023-04-09T10:24:07;73052.97;;;-145.80;45.65
6615;BME280;3343;42.896;23.912;2023-04-09T10:26:38;73056.97;;;-145.80;44.81
6615;BME280;3343;42.896;23.912;2023-04-09T10:29:07;73020.88;;;-145.80;46.54
6615;BME280;3343;42.896;23.912;2023-04-09T10:31:46;73028.91;;;-145.80;45.29
6615;BME280;3343;42.896;23.912;2023-04-09T10:34:17;73032.91;;;-145.80;46.61
6615;BME280;3343;42.896;23.912;2023-04-09T10:36:49;73006.84;;;-145.80;47.88
6615;BME280;3343;42.896;23.912;2023-04-09T10:39:17;73038.91;;;-145.80;45.68
6615;BME280;3343;42.896;23.912;2023-04-09T10:41:45;72976.75;;;-145.80;46.13
6615;BME280;3343;42.896;23.912;2023-04-09T10:44:21;73095.06;;;-145.80;44.97
6615;BME280;3343;42.896;23.912;2023-04-09T10:46:49;73225.44;;;-145.80;45.83
6615;BME280;3343;42.896;23.912;2023-04-09T10:49:19;73183.31;;;-145.80;48.59
6615;BME280;3343;42.896;23.912;2023-04-09T10:51:49;73169.28;;;-145.80;50.57
6615;BME280;3343;42.896;23.912;2023-04-09T10:54:38;73135.19;;;-145.80;49.79
6615;BME280;3343;42.896;23.912;2023-04-09T10:57:20;73115.13;;;-145.80;49.11
6615;BME280;3343;42.896;23.912;2023-04-09T10:59:51;73123.16;;;-145.80;50.71
6615;BME280;3343;42.896;23.912;2023-04-09T11:02:53;73111.13;;;-145.80;49.64
6615;BME280;3343;42.896;23.912;2023-04-09T11:05:30;73117.13;;;-145.80;49.41
6615;BME280;3343;42.896;23.912;2023-04-09T11:08:03;73087.06;;;-145.80;49.80
6615;BME280;3343;42.896;23.912;2023-04-09T11:10:31;73079.03;;;-145.80;48.47
6615;BME280;3343;42.896;23.912;2023-04-09T11:12:58;73018.88;;;-145.80;49.76
6615;BME280;3343;42.896;23.912;2023-04-09T11:15:27;72994.81;;;-145.80;47.22
6615;BME280;3343;42.896;23.912;2023-04-09T11:17:54;73000.81;;;-145.80;46.83
6615;BME280;3343;42.896;23.912;2023-04-09T11:20:23;73036.91;;;-145.80;46.22
6615;BME280;3343;42.896;23.912;2023-04-09T11:22:51;73050.94;;;-145.80;46.88
6615;BME280;3343;42.896;23.912;2023-04-09T11:25:19;73069.00;;;-145.80;46.14
6615;BME280;3343;42.896;23.912;2023-04-09T11:27:47;73073.00;;;-145.80;46.01
6615;BME280;3343;42.896;23.912;2023-04-09T11:30:14;73111.13;;;-145.80;48.62
6615;BME280;3343;42.896;23.912;2023-04-09T11:32:42;73077.03;;;-145.80;48.80
6615;BME280;3343;42.896;23.912;2023-04-09T11:35:13;73101.09;;;-145.80;48.78
6615;BME280;3343;42.896;23.912;2023-04-09T11:37:42;73101.09;;;-145.80;48.04
6615;BME280;3343;42.896;23.912;2023-04-09T11:40:14;73107.09;;;-145.80;48.07
6615;BME280;3343;42.896;23.912;2023-04-09T11:42:42;73135.19;;;-145.80;49.25
6615;BME280;3343;42.896;23.912;2023-04-09T11:45:09;73133.19;;;-145.80;49.57
6615;BME280;3343;42.896;23.912;2023-04-09T11:47:38;73145.22;;;-145.80;49.87
6615;BME280;3343;42.896;23.912;2023-04-09T11:50:07;73151.22;;;-145.80;49.87
6615;BME280;3343;42.896;23.912;2023-04-09T11:52:35;73163.25;;;-145.80;49.66
6615;BME280;3343;42.896;23.912;2023-04-09T11:55:02;73177.31;;;-145.80;50.43
6615;BME280;3343;42.896;23.912;2023-04-09T11:57:39;73143.22;;;-145.80;50.21
6615;BME280;3343;42.896;23.912;2023-04-09T12:00:09;73145.22;;;-145.80;50.65
6615;BME280;3343;42.896;23.912;2023-04-09T12:02:41;73111.13;;;-145.80;50.04
6615;BME280;3343;42.896;23.912;2023-04-09T12:05:11;73113.13;;;-145.80;48.98
6615;BME280;3343;42.896;23.912;2023-04-09T12:07:39;73115.13;;;-145.80;49.64
6615;BME280;3343;42.896;23.912;2023-04-09T12:10:07;73105.09;;;-145.80;49.08
6615;BME280;3343;42.896;23.912;2023-04-09T12:12:39;73085.03;;;-145.80;49.43
6615;BME280;3343;42.896;23.912;2023-04-09T12:15:23;73105.09;;;-145.80;48.81
6615;BME280;3343;42.896;23.912;2023-04-09T12:17:53;73105.09;;;-145.80;49.24
6615;BME280;3343;42.896;23.912;2023-04-09T12:20:32;73133.19;;;-145.80;47.26
6615;BME280;3343;42.896;23.912;2023-04-09T12:23:02;73129.16;;;-145.80;50.06
6615;BME280;3343;42.896;23.912;2023-04-09T12:25:29;73127.16;;;-145.80;50.45
6615;BME280;3343;42.896;23.912;2023-04-09T12:27:57;73109.13;;;-145.80;49.33
6615;BME280;3343;42.896;23.912;2023-04-09T12:30:24;73099.09;;;-145.80;48.12
6615;BME280;3343;42.896;23.912;2023-04-09T12:32:52;73087.06;;;-145.80;49.17
6615;BME280;3343;42.896;23.912;2023-04-09T12:35:19;73119.13;;;-145.80;49.17
6615;BME280;3343;42.896;23.912;2023-04-09T12:37:48;73087.06;;;-145.80;47.90
6615;BME280;3343;42.896;23.912;2023-04-09T12:40:15;73125.16;;;-145.80;48.47
6615;BME280;3343;42.896;23.912;2023-04-09T12:42:43;73087.06;;;-145.80;48.44
6615;BME280;3343;42.896;23.912;2023-04-09T12:45:12;73083.03;;;-145.80;46.23
6615;BME280;3343;42.896;23.912;2023-04-09T12:47:39;73141.19;;;-145.80;47.55
6615;BME280;3343;42.896;23.912;2023-04-09T12:50:07;73119.13;;;-145.80;47.14
6615;BME280;3343;42.896;23.912;2023-04-09T12:52:36;73145.22;;;-145.80;48.64
6615;BME280;3343;42.896;23.912;2023-04-09T12:55:05;73173.28;;;-145.80;50.00
6615;BME280;3343;42.896;23.912;2023-04-09T12:57:32;73203.38;;;-145.80;50.66
6615;BME280;3343;42.896;23.912;2023-04-09T12:59:59;73213.41;;;-145.80;51.22
6615;BME280;3343;42.896;23.912;2023-04-09T13:02:26;73221.44;;;-145.80;51.37
6615;BME280;3343;42.896;23.912;2023-04-09T13:04:53;73277.59;;;-145.80;51.88